Time;durP1;ratioP1;P1;durP2;ratioP2;P2;SDS_P1;SDS_P2;PMS_P1;PMS_P2;Temp;Humidity;BMP_temperature;BMP_pressure;BME280_temperature;BME280_humidity;BME280_pressure;Samples;Min_cycle;Max_cycle;Signal;HPM_P1;HPM_P2
2023/12/28 00:01:07;;;;;;;3.23;2.73;;;6.00;99.90;;;;;;5028731;28;20209;-82
2023/12/28 00:03:34;;;;;;;4.80;2.33;;;6.00;99.90;;;;;;5044882;28;20210;-82
2023/12/28 00:06:03;;;;;;;4.17;2.90;;;5.90;99.90;;;;;;5047273;28;20208;-82
2023/12/28 00:08:32;;;;;;;3.83;2.70;;;6.00;99.90;;;;;;5046775;28;20297;-80
2023/12/28 00:10:59;;;;;;;4.60;2.70;;;5.90;99.90;;;;;;5047746;28;20246;-79
2023/12/28 00:13:26;;;;;;;2.87;2.60;;;6.00;99.90;;;;;;5047964;28;20326;-79
2023/12/28 00:15:53;;;;;;;3.73;2.50;;;6.00;99.90;;;;;;5048092;28;20651;-80
2023/12/28 00:18:19;;;;;;;2.87;2.60;;;6.00;99.90;;;;;;5047805;28;20204;-79
2023/12/28 00:20:46;;;;;;;2.50;2.17;;;6.00;99.90;;;;;;5047974;28;20291;-80
2023/12/28 00:23:14;;;;;;;6.70;2.97;;;6.00;99.90;;;;;;5047525;28;20315;-80
2023/12/28 00:25:41;;;;;;;3.67;2.70;;;6.00;99.90;;;;;;5048201;28;20269;-81
2023/12/28 00:28:08;;;;;;;3.63;2.60;;;6.00;99.90;;;;;;5047449;28;20323;-81
2023/12/28 00:30:35;;;;;;;4.67;2.77;;;5.90;99.90;;;;;;5047624;28;20291;-79
2023/12/28 00:33:04;;;;;;;4.07;2.43;;;6.00;99.90;;;;;;5047091;28;20669;-79
2023/12/28 00:35:31;;;;;;;2.53;2.33;;;5.90;99.90;;;;;;5047580;28;20761;-78
2023/12/28 00:37:58;;;;;;;3.33;2.40;;;6.00;99.90;;;;;;5047488;28;20297;-79
2023/12/28 00:40:26;;;;;;;2.63;2.40;;;6.00;99.90;;;;;;5047556;28;20214;-79
2023/12/28 00:42:53;;;;;;;3.07;2.50;;;6.00;99.90;;;;;;5047396;28;20718;-79
2023/12/28 00:45:20;;;;;;;2.50;2.30;;;6.00;99.90;;;;;;5047634;28;20208;-79
2023/12/28 00:47:47;;;;;;;2.90;2.70;;;6.00;99.90;;;;;;5047912;28;20331;-79
2023/12/28 00:50:14;;;;;;;2.40;2.20;;;6.00;99.90;;;;;;5047411;28;20331;-80
2023/12/28 00:52:41;;;;;;;3.53;2.70;;;6.00;99.90;;;;;;5047122;28;20294;-79
2023/12/28 00:55:09;;;;;;;3.60;2.53;;;6.00;99.90;;;;;;5047016;28;20307;-82
2023/12/28 00:57:37;;;;;;;2.20;2.07;;;6.00;99.90;;;;;;5047460;28;20262;-82
2023/12/28 01:00:05;;;;;;;2.30;2.10;;;6.00;99.90;;;;;;5047035;28;20291;-80
2023/12/28 01:02:32;;;;;;;2.63;2.43;;;6.00;99.90;;;;;;5047106;28;20204;-81
2023/12/28 01:04:59;;;;;;;2.50;2.30;;;6.00;99.90;;;;;;5046876;28;20302;-81
2023/12/28 01:07:26;;;;;;;2.63;2.43;;;6.00;99.90;;;;;;5047019;28;20893;-81
2023/12/28 01:09:52;;;;;;;2.43;2.23;;;6.00;99.90;;;;;;5047242;28;20338;-81
2023/12/28 01:12:19;;;;;;;3.40;2.20;;;6.10;99.90;;;;;;5047040;28;20302;-83
2023/12/28 01:14:48;;;;;;;5.53;2.23;;;6.10;99.90;;;;;;5047279;28;20257;-82
2023/12/28 01:17:14;;;;;;;4.13;2.50;;;6.10;99.90;;;;;;5047291;28;20255;-81
2023/12/28 01:19:41;;;;;;;2.47;2.20;;;6.00;99.90;;;;;;5047616;28;20330;-81
2023/12/28 01:22:08;;;;;;;4.50;2.30;;;6.00;99.90;;;;;;5046591;28;20778;-81
2023/12/28 01:24:35;;;;;;;2.80;2.50;;;6.00;99.90;;;;;;5050710;28;20655;-80
2023/12/28 01:27:02;;;;;;;4.03;2.40;;;6.00;99.90;;;;;;5051329;28;20625;-80
2023/12/28 01:29:29;;;;;;;4.87;2.50;;;6.00;99.90;;;;;;5049692;28;20304;-81
2023/12/28 01:31:57;;;;;;;2.30;2.03;;;6.00;99.90;;;;;;5031166;28;20293;-80
2023/12/28 01:34:24;;;;;;;3.80;2.10;;;6.00;99.90;;;;;;5042489;28;20299;-81
2023/12/28 01:36:51;;;;;;;2.03;1.80;;;6.00;99.90;;;;;;5050910;28;20235;-81
2023/12/28 01:39:18;;;;;;;2.10;1.90;;;6.00;99.90;;;;;;5050350;28;20204;-81
2023/12/28 01:41:46;;;;;;;2.87;2.20;;;6.00;99.90;;;;;;5051152;28;20235;-79
2023/12/28 01:44:13;;;;;;;2.30;2.00;;;6.00;99.90;;;;;;5050290;28;20624;-81
2023/12/28 01:46:41;;;;;;;2.87;1.93;;;6.00;99.90;;;;;;5050426;28;20211;-80
2023/12/28 01:49:09;;;;;;;2.60;1.67;;;6.00;99.90;;;;;;5050708;28;20319;-80
2023/12/28 01:51:37;;;;;;;4.00;2.10;;;6.00;99.90;;;;;;5050413;28;20232;-80
2023/12/28 01:54:04;;;;;;;2.87;1.90;;;6.00;99.90;;;;;;5050285;28;20254;-81
2023/12/28 01:56:31;;;;;;;2.13;2.00;;;6.00;99.90;;;;;;5050473;28;20883;-81
2023/12/28 01:58:58;;;;;;;2.10;1.97;;;6.00;99.90;;;;;;5050400;28;20300;-81
2023/12/28 02:01:26;;;;;;;3.17;2.07;;;6.00;99.90;;;;;;5049565;28;20307;-81
2023/12/28 02:03:53;;;;;;;1.83;1.73;;;6.00;99.90;;;;;;5050685;28;20309;-79
2023/12/28 02:06:24;;;;;;;2.93;1.83;;;6.00;99.90;;;;;;5050298;28;20215;-80
2023/12/28 02:08:51;;;;;;;1.97;1.87;;;6.10;99.90;;;;;;5049913;28;20276;-83
2023/12/28 02:11:19;;;;;;;2.10;1.90;;;6.10;99.90;;;;;;5050539;28;20208;-82
2023/12/28 02:13:47;;;;;;;2.27;2.07;;;6.10;99.90;;;;;;5050056;28;20307;-81
2023/12/28 02:16:16;;;;;;;2.17;1.37;;;6.20;99.90;;;;;;5050046;28;20204;-81
2023/12/28 02:18:46;;;;;;;1.27;1.20;;;6.30;99.90;;;;;;5050477;28;20216;-81
2023/12/28 02:21:16;;;;;;;1.37;1.27;;;6.50;99.90;;;;;;5049762;28;20228;-81
2023/12/28 02:23:49;;;;;;;1.97;1.50;;;6.60;99.90;;;;;;5050282;28;20403;-82
2023/12/28 02:26:17;;;;;;;2.57;1.27;;;6.60;99.90;;;;;;5049934;28;20745;-81
2023/12/28 02:28:45;;;;;;;2.03;1.43;;;6.90;99.90;;;;;;5050352;28;20307;-81
2023/12/28 02:31:18;;;;;;;3.93;1.63;;;7.00;99.90;;;;;;5043305;28;20201;-81
2023/12/28 02:33:51;;;;;;;1.40;1.20;;;7.20;99.90;;;;;;5043955;28;20200;-81
2023/12/28 02:36:23;;;;;;;1.50;1.40;;;7.20;99.90;;;;;;5040989;28;20196;-84
2023/12/28 02:38:52;;;;;;;1.33;1.23;;;7.30;99.90;;;;;;5041461;28;20307;-79
2023/12/28 02:41:20;;;;;;;1.20;1.00;;;7.30;99.90;;;;;;5043013;28;21521;-79
2023/12/28 02:43:49;;;;;;;1.17;1.17;;;7.50;99.90;;;;;;5043464;28;20644;-79
2023/12/28 02:46:16;;;;;;;2.03;1.10;;;7.80;99.90;;;;;;5048291;28;20238;-79
2023/12/28 02:48:43;;;;;;;1.50;1.17;;;7.90;99.90;;;;;;5049405;28;20305;-79
2023/12/28 02:51:10;;;;;;;2.30;1.30;;;8.00;99.90;;;;;;5049256;28;20247;-79
2023/12/28 02:53:37;;;;;;;1.10;1.10;;;8.00;99.90;;;;;;5049737;28;20324;-79
2023/12/28 02:56:04;;;;;;;1.00;1.00;;;8.10;99.90;;;;;;5048806;28;20635;-79
2023/12/28 02:58:32;;;;;;;0.90;0.90;;;7.90;99.90;;;;;;5049431;28;20579;-79
2023/12/28 03:00:59;;;;;;;1.33;1.00;;;7.90;99.90;;;;;;5049179;28;20845;-79
2023/12/28 03:03:26;;;;;;;1.10;1.10;;;7.80;99.90;;;;;;5049154;28;20304;-79
2023/12/28 03:05:53;;;;;;;1.60;0.93;;;7.90;99.90;;;;;;5048941;28;20295;-79
2023/12/28 03:08:20;;;;;;;1.13;1.00;;;8.00;99.90;;;;;;5048567;28;20279;-79
2023/12/28 03:10:46;;;;;;;1.20;1.10;;;8.10;99.90;;;;;;5049031;28;20315;-79
2023/12/28 03:13:13;;;;;;;1.07;0.97;;;8.20;99.90;;;;;;5049261;28;20232;-79
2023/12/28 03:15:41;;;;;;;1.13;1.03;;;8.20;99.90;;;;;;5049483;28;20283;-79
2023/12/28 03:18:08;;;;;;;1.00;0.90;;;8.30;99.90;;;;;;5049111;28;20244;-83
2023/12/28 03:20:35;;;;;;;1.10;1.00;;;8.30;99.90;;;;;;5049268;28;20239;-81
2023/12/28 03:23:02;;;;;;;1.00;1.00;;;8.30;99.90;;;;;;5048822;28;20691;-81
2023/12/28 03:25:29;;;;;;;1.10;1.00;;;8.30;99.90;;;;;;5049293;28;20209;-82
2023/12/28 03:27:56;;;;;;;1.67;1.07;;;8.40;99.90;;;;;;5048684;28;20295;-81
2023/12/28 03:30:23;;;;;;;1.17;1.10;;;8.50;99.90;;;;;;5048359;28;20724;-79
2023/12/28 03:32:51;;;;;;;1.30;1.20;;;8.40;99.90;;;;;;5048933;28;20510;-79
2023/12/28 03:35:18;;;;;;;0.93;0.93;;;8.30;99.90;;;;;;5048623;28;20298;-78
2023/12/28 03:37:46;;;;;;;1.10;1.10;;;8.40;99.90;;;;;;5048244;28;20303;-78
2023/12/28 03:40:13;;;;;;;1.87;1.20;;;8.30;99.90;;;;;;5048583;28;20304;-81
2023/12/28 03:42:40;;;;;;;1.10;1.03;;;8.40;99.90;;;;;;5048579;28;20211;-82
2023/12/28 03:45:08;;;;;;;1.00;0.90;;;8.40;99.90;;;;;;5047970;28;20250;-81
2023/12/28 03:47:35;;;;;;;1.20;1.10;;;8.30;99.90;;;;;;5048647;28;20208;-81
2023/12/28 03:50:03;;;;;;;1.50;1.40;;;8.30;99.90;;;;;;5048476;28;20322;-81
2023/12/28 03:52:31;;;;;;;2.33;1.10;;;8.30;99.90;;;;;;5047391;28;20303;-81
2023/12/28 03:54:57;;;;;;;1.20;1.20;;;8.20;99.90;;;;;;5048626;28;20547;-82
2023/12/28 03:57:26;;;;;;;1.87;1.00;;;8.30;99.90;;;;;;5048344;28;20720;-82
2023/12/28 03:59:53;;;;;;;0.97;0.90;;;8.20;99.90;;;;;;5048646;28;20298;-81
2023/12/28 04:02:20;;;;;;;0.90;0.90;;;8.20;99.90;;;;;;5047898;28;20204;-82
2023/12/28 04:04:47;;;;;;;1.20;1.10;;;8.20;99.90;;;;;;5047772;28;20727;-83
2023/12/28 04:07:16;;;;;;;0.70;0.70;;;8.20;99.90;;;;;;5047261;28;20303;-80
2023/12/28 04:09:42;;;;;;;1.37;1.27;;;8.20;99.90;;;;;;5047003;28;20270;-83
2023/12/28 04:12:09;;;;;;;0.83;0.83;;;8.20;99.90;;;;;;5047533;28;20235;-84
2023/12/28 04:14:36;;;;;;;1.10;0.80;;;8.30;99.90;;;;;;5047568;28;20311;-85
2023/12/28 04:17:03;;;;;;;1.03;1.03;;;8.30;99.90;;;;;;5047365;28;20753;-84
2023/12/28 04:19:32;;;;;;;0.83;0.83;;;8.30;99.90;;;;;;5048396;28;20302;-85
2023/12/28 04:21:58;;;;;;;0.83;0.83;;;8.30;99.90;;;;;;5048122;28;20263;-86
2023/12/28 04:24:27;;;;;;;0.70;0.70;;;8.30;99.90;;;;;;5047009;28;20265;-80
2023/12/28 04:26:54;;;;;;;1.03;1.00;;;8.30;99.90;;;;;;5047213;28;20211;-81
2023/12/28 04:29:21;;;;;;;1.87;1.00;;;8.40;99.90;;;;;;5037464;28;20296;-82
2023/12/28 04:31:47;;;;;;;0.90;0.90;;;8.30;99.90;;;;;;5027385;28;20805;-78
2023/12/28 04:34:14;;;;;;;0.90;0.90;;;8.40;99.90;;;;;;5027297;28;20307;-79
2023/12/28 04:36:42;;;;;;;1.00;1.00;;;8.40;99.90;;;;;;5027127;28;20240;-80
2023/12/28 04:39:09;;;;;;;2.50;1.20;;;8.50;99.90;;;;;;5026858;28;20212;-79
2023/12/28 04:41:37;;;;;;;1.23;1.20;;;8.50;99.90;;;;;;5027207;28;20303;-79
2023/12/28 04:44:04;;;;;;;1.27;1.17;;;8.40;99.90;;;;;;5026727;28;20746;-79
2023/12/28 04:46:31;;;;;;;2.40;1.03;;;8.40;99.90;;;;;;5026935;28;20697;-78
2023/12/28 04:48:58;;;;;;;1.67;0.90;;;8.50;99.90;;;;;;5029920;28;20295;-83
2023/12/28 04:51:25;;;;;;;0.90;0.90;;;8.60;99.90;;;;;;5047165;28;20338;-80
2023/12/28 04:53:52;;;;;;;1.27;1.17;;;8.60;99.90;;;;;;5047087;28;20299;-80
2023/12/28 04:56:19;;;;;;;0.73;0.73;;;8.70;99.90;;;;;;5046589;28;20576;-80
2023/12/28 04:58:48;;;;;;;1.10;0.80;;;8.70;99.90;;;;;;5045831;28;20216;-80
2023/12/28 05:01:15;;;;;;;2.93;1.00;;;8.70;99.90;;;;;;5045967;28;20200;-79
2023/12/28 05:03:42;;;;;;;1.10;1.00;;;8.70;99.90;;;;;;5046295;28;20239;-81
2023/12/28 05:06:08;;;;;;;0.90;0.90;;;8.70;99.90;;;;;;5046399;28;20240;-80
2023/12/28 05:08:35;;;;;;;1.60;1.00;;;8.70;99.90;;;;;;4996613;28;1097138;-80
2023/12/28 05:11:02;;;;;;;1.23;1.13;;;8.70;99.90;;;;;;5027243;28;20240;-81
2023/12/28 05:13:29;;;;;;;1.00;1.00;;;8.70;99.90;;;;;;5027020;28;20254;-80
2023/12/28 05:15:57;;;;;;;1.63;1.10;;;8.70;99.90;;;;;;5026893;28;20300;-77
2023/12/28 05:18:24;;;;;;;1.80;1.07;;;8.70;99.90;;;;;;5027462;28;20248;-78
2023/12/28 05:20:51;;;;;;;1.07;0.90;;;8.70;99.90;;;;;;5027073;28;20320;-81
2023/12/28 05:23:18;;;;;;;1.13;1.00;;;8.70;99.90;;;;;;5026661;28;20976;-78
2023/12/28 05:25:46;;;;;;;1.20;1.00;;;8.70;99.90;;;;;;5026989;28;20251;-81
2023/12/28 05:28:12;;;;;;;1.20;0.93;;;8.70;99.90;;;;;;5027232;28;20239;-81
2023/12/28 05:30:39;;;;;;;0.97;0.97;;;8.60;99.90;;;;;;5045532;28;20235;-81
2023/12/28 05:33:08;;;;;;;1.17;1.10;;;8.60;99.90;;;;;;5047021;28;20290;-78
2023/12/28 05:35:34;;;;;;;0.73;0.73;;;8.70;99.90;;;;;;5047024;28;20302;-81
2023/12/28 05:38:01;;;;;;;1.00;1.00;;;8.70;99.90;;;;;;5046566;28;20675;-81
2023/12/28 05:40:28;;;;;;;1.00;1.00;;;8.80;99.90;;;;;;5047025;28;20299;-81
2023/12/28 05:42:55;;;;;;;1.13;1.03;;;8.80;99.90;;;;;;5047300;28;20303;-81
2023/12/28 05:45:22;;;;;;;0.80;0.80;;;8.80;99.90;;;;;;5046317;28;20736;-83
2023/12/28 05:47:49;;;;;;;1.10;0.93;;;8.80;99.90;;;;;;5046740;28;20990;-82
2023/12/28 05:50:17;;;;;;;0.80;0.80;;;8.80;99.90;;;;;;5046729;28;20338;-81
2023/12/28 05:52:44;;;;;;;0.90;0.90;;;8.90;99.90;;;;;;5046885;28;20212;-80
2023/12/28 05:55:11;;;;;;;1.43;1.00;;;8.90;99.90;;;;;;5046744;28;20231;-81
2023/12/28 05:57:38;;;;;;;1.43;1.30;;;8.90;99.90;;;;;;5046683;28;21074;-83
2023/12/28 06:00:06;;;;;;;1.23;1.10;;;9.00;99.90;;;;;;5046102;28;20711;-81
2023/12/28 06:02:33;;;;;;;1.00;0.90;;;9.00;99.90;;;;;;5046840;28;20213;-83
2023/12/28 06:05:00;;;;;;;0.73;0.73;;;9.00;99.90;;;;;;5046348;28;20218;-78
2023/12/28 06:07:28;;;;;;;1.27;1.17;;;9.10;99.90;;;;;;5047281;28;20299;-80
2023/12/28 06:09:55;;;;;;;1.23;1.03;;;9.10;99.90;;;;;;5048957;28;20298;-79
2023/12/28 06:12:22;;;;;;;0.80;0.80;;;9.10;99.90;;;;;;5050070;28;20207;-80
2023/12/28 06:14:49;;;;;;;0.97;0.87;;;9.10;99.90;;;;;;5049907;28;20286;-79
2023/12/28 06:17:19;;;;;;;1.00;0.90;;;9.10;99.90;;;;;;5049816;28;20315;-80
2023/12/28 06:19:46;;;;;;;1.07;1.00;;;9.10;99.90;;;;;;5049623;28;20262;-80
2023/12/28 06:22:13;;;;;;;2.10;1.20;;;9.00;99.90;;;;;;5049942;28;20318;-75
2023/12/28 06:24:41;;;;;;;0.90;0.90;;;9.00;99.90;;;;;;5048009;28;20295;-81
2023/12/28 06:27:08;;;;;;;1.17;1.07;;;9.00;99.90;;;;;;5037455;28;20241;-80
2023/12/28 06:29:35;;;;;;;0.90;0.90;;;8.90;99.90;;;;;;5035428;28;20845;-80
2023/12/28 06:32:02;;;;;;;2.10;1.20;;;9.00;99.90;;;;;;5033753;28;20338;-80
2023/12/28 06:34:28;;;;;;;1.13;1.13;;;8.90;99.90;;;;;;5036541;28;20199;-80
2023/12/28 06:36:55;;;;;;;1.00;1.00;;;9.00;99.90;;;;;;5039202;28;20230;-80
2023/12/28 06:39:22;;;;;;;1.27;1.17;;;9.00;99.90;;;;;;5044168;28;20208;-80
2023/12/28 06:41:51;;;;;;;1.50;1.17;;;8.90;99.90;;;;;;5043554;28;20208;-81
2023/12/28 06:44:17;;;;;;;1.43;1.20;;;8.90;99.90;;;;;;5044843;28;20326;-81
2023/12/28 06:46:44;;;;;;;1.00;1.00;;;9.00;99.90;;;;;;5044972;28;20216;-81
2023/12/28 06:49:11;;;;;;;1.33;1.03;;;8.90;99.90;;;;;;5044466;28;20259;-81
2023/12/28 06:51:38;;;;;;;1.40;1.30;;;8.90;99.90;;;;;;5044642;28;20236;-81
2023/12/28 06:54:05;;;;;;;1.00;1.00;;;8.90;99.90;;;;;;5044042;28;20645;-80
2023/12/28 06:56:32;;;;;;;1.83;1.40;;;8.80;99.90;;;;;;5044589;28;20894;-80
2023/12/28 06:59:00;;;;;;;1.20;1.10;;;8.80;99.90;;;;;;5044492;28;20320;-80
2023/12/28 07:01:27;;;;;;;1.50;1.40;;;8.80;99.90;;;;;;5043531;28;20206;-80
2023/12/28 07:03:54;;;;;;;1.37;1.27;;;8.70;99.90;;;;;;5048537;28;20667;-80
2023/12/28 07:06:21;;;;;;;1.43;1.10;;;8.80;99.90;;;;;;5047520;28;20742;-80
2023/12/28 07:08:48;;;;;;;1.33;1.23;;;8.80;99.90;;;;;;5047848;28;20714;-80
2023/12/28 07:11:15;;;;;;;1.33;1.23;;;8.80;99.90;;;;;;5047939;28;20726;-80
2023/12/28 07:13:42;;;;;;;1.10;0.90;;;8.70;99.90;;;;;;5049082;28;20299;-80
2023/12/28 07:16:10;;;;;;;1.20;1.13;;;8.70;99.90;;;;;;5048919;28;20304;-80
2023/12/28 07:18:37;;;;;;;1.23;1.13;;;8.80;99.90;;;;;;5048469;28;20307;-80
2023/12/28 07:21:04;;;;;;;3.00;1.10;;;8.70;99.90;;;;;;5047462;28;20884;-79
2023/12/28 07:23:31;;;;;;;1.43;1.10;;;8.80;99.90;;;;;;5048417;28;20231;-80
2023/12/28 07:25:58;;;;;;;1.33;1.07;;;8.80;99.90;;;;;;5048937;28;20295;-80
2023/12/28 07:28:24;;;;;;;2.37;1.10;;;8.70;99.90;;;;;;5048673;28;20299;-80
2023/12/28 07:30:51;;;;;;;1.30;1.20;;;8.70;99.90;;;;;;5040595;28;20314;-80
2023/12/28 07:33:20;;;;;;;1.03;1.00;;;8.70;99.90;;;;;;5048255;28;20366;-80
2023/12/28 07:35:47;;;;;;;1.13;1.13;;;8.70;99.90;;;;;;5048381;28;20291;-81
2023/12/28 07:38:14;;;;;;;1.43;1.30;;;8.60;99.90;;;;;;5047482;28;20295;-80
2023/12/28 07:40:41;;;;;;;1.30;1.20;;;8.60;99.90;;;;;;5048458;28;20295;-80
2023/12/28 07:43:08;;;;;;;1.20;1.10;;;8.70;99.90;;;;;;5048224;28;20628;-80
2023/12/28 07:45:38;;;;;;;1.20;1.10;;;8.60;99.90;;;;;;5048133;28;20215;-80
2023/12/28 07:48:06;;;;;;;1.73;1.20;;;8.60;99.90;;;;;;5048618;28;20299;-80
2023/12/28 07:50:34;;;;;;;1.80;1.70;;;8.50;99.90;;;;;;5048032;28;20631;-80
2023/12/28 07:53:01;;;;;;;1.60;1.50;;;8.50;99.90;;;;;;5047873;28;20215;-83
2023/12/28 07:55:28;;;;;;;1.40;1.30;;;8.50;99.90;;;;;;5048245;28;20295;-79
2023/12/28 07:57:55;;;;;;;1.00;1.00;;;8.60;99.90;;;;;;5047954;28;20299;-81
2023/12/28 08:00:22;;;;;;;1.37;1.20;;;8.60;99.90;;;;;;5046555;28;20721;-80
2023/12/28 08:02:49;;;;;;;1.10;1.10;;;8.60;99.90;;;;;;5045695;28;20210;-80
2023/12/28 08:05:16;;;;;;;1.50;1.40;;;8.60;99.90;;;;;;5046624;28;20746;-80
2023/12/28 08:07:44;;;;;;;1.07;1.07;;;8.60;99.90;;;;;;5032199;28;20279;-79
2023/12/28 08:10:11;;;;;;;1.43;1.30;;;8.60;99.90;;;;;;5022146;28;20331;-80
2023/12/28 08:12:38;;;;;;;1.30;1.20;;;8.60;99.90;;;;;;5023008;28;20611;-80
2023/12/28 08:15:06;;;;;;;1.60;1.30;;;8.70;99.90;;;;;;5022672;28;20208;-80
2023/12/28 08:17:33;;;;;;;2.43;1.10;;;8.70;99.90;;;;;;5023398;28;20292;-82
2023/12/28 08:20:00;;;;;;;1.93;1.57;;;8.70;99.90;;;;;;5022985;28;20753;-80
2023/12/28 08:22:27;;;;;;;1.30;1.20;;;8.60;99.90;;;;;;5022681;28;20792;-78
2023/12/28 08:24:57;;;;;;;2.30;1.50;;;8.60;99.90;;;;;;5022936;28;20208;-79
2023/12/28 08:27:24;;;;;;;1.50;1.40;;;8.60;99.90;;;;;;5023296;28;20208;-79
2023/12/28 08:29:51;;;;;;;4.17;1.30;;;8.70;99.90;;;;;;5030237;28;20204;-79
2023/12/28 08:32:18;;;;;;;1.77;1.13;;;8.70;99.90;;;;;;5022491;28;20695;-79
2023/12/28 08:34:46;;;;;;;1.50;1.40;;;8.70;99.90;;;;;;5034342;28;20216;-81
2023/12/28 08:37:13;;;;;;;1.70;1.60;;;8.80;99.90;;;;;;5043059;28;20302;-81
2023/12/28 08:39:41;;;;;;;1.30;1.20;;;8.90;99.90;;;;;;5042848;28;20617;-80
2023/12/28 08:42:09;;;;;;;2.20;1.43;;;8.90;99.90;;;;;;5043376;28;20208;-79
2023/12/28 08:44:39;;;;;;;1.20;1.10;;;8.80;99.90;;;;;;5043263;28;20678;-80
2023/12/28 08:47:06;;;;;;;1.47;1.37;;;8.80;99.90;;;;;;5043171;28;20303;-80
2023/12/28 08:49:34;;;;;;;1.60;1.50;;;8.80;99.90;;;;;;5043516;28;20621;-80
2023/12/28 08:52:01;;;;;;;2.93;1.60;;;8.80;99.90;;;;;;5043258;28;20241;-80
2023/12/28 08:54:28;;;;;;;1.60;1.50;;;8.80;99.90;;;;;;5043131;28;20680;-80
2023/12/28 08:56:54;;;;;;;2.13;1.60;;;8.90;99.90;;;;;;5042753;28;20666;-80
2023/12/28 08:59:23;;;;;;;1.53;1.43;;;8.90;99.90;;;;;;5043062;28;20764;-81
2023/12/28 09:01:50;;;;;;;1.53;1.43;;;8.90;99.90;;;;;;5042920;28;20292;-80
2023/12/28 09:04:17;;;;;;;1.50;1.40;;;8.80;99.90;;;;;;5043244;28;20295;-80
2023/12/28 09:06:44;;;;;;;1.73;1.63;;;8.90;99.90;;;;;;5043210;28;20295;-80
2023/12/28 09:09:10;;;;;;;1.60;1.40;;;8.80;99.90;;;;;;5042904;28;20240;-80
2023/12/28 09:11:37;;;;;;;1.67;1.57;;;8.90;99.90;;;;;;5043277;28;20242;-79
2023/12/28 09:14:07;;;;;;;1.77;1.33;;;8.90;99.90;;;;;;5043210;28;20322;-79
2023/12/28 09:16:36;;;;;;;1.60;1.50;;;8.90;99.90;;;;;;5043331;28;20579;-80
2023/12/28 09:19:03;;;;;;;1.90;1.40;;;8.90;99.90;;;;;;5042715;28;20210;-80
2023/12/28 09:21:30;;;;;;;3.97;1.50;;;8.80;99.90;;;;;;5042931;28;20270;-80
2023/12/28 09:23:57;;;;;;;1.47;1.37;;;8.80;99.90;;;;;;5042430;28;20729;-80
2023/12/28 09:26:24;;;;;;;1.50;1.40;;;8.80;99.90;;;;;;5042969;28;20204;-80
2023/12/28 09:28:50;;;;;;;3.33;1.50;;;8.80;99.90;;;;;;5042578;28;20295;-80
2023/12/28 09:31:17;;;;;;;1.50;1.40;;;8.80;99.90;;;;;;5040066;28;20310;-80
2023/12/28 09:33:46;;;;;;;1.40;1.40;;;8.80;99.90;;;;;;5043123;28;20200;-80
2023/12/28 09:36:13;;;;;;;1.77;1.67;;;8.70;99.90;;;;;;5042707;28;20255;-80
2023/12/28 09:38:40;;;;;;;1.70;1.60;;;8.80;99.90;;;;;;5043037;28;20212;-80
2023/12/28 09:41:14;;;;;;;1.67;1.57;;;8.80;99.90;;;;;;5043086;28;20311;-81
2023/12/28 09:43:52;;;;;;;1.53;1.43;;;8.80;99.90;;;;;;5043990;28;20283;-80
2023/12/28 09:46:19;;;;;;;1.67;1.57;;;8.80;99.90;;;;;;5046839;28;20206;-81
2023/12/28 09:48:48;;;;;;;3.27;1.73;;;8.80;99.90;;;;;;5046991;28;20215;-80
2023/12/28 09:51:14;;;;;;;2.13;1.33;;;8.80;99.90;;;;;;5046461;28;20286;-79
2023/12/28 09:53:43;;;;;;;1.50;1.40;;;8.90;99.90;;;;;;5045814;28;20694;-80
2023/12/28 09:56:10;;;;;;;1.63;1.53;;;8.90;99.90;;;;;;5046046;28;20664;-79
2023/12/28 09:58:38;;;;;;;1.90;1.70;;;8.90;99.90;;;;;;5046520;28;20216;-79
2023/12/28 10:01:06;;;;;;;1.57;1.47;;;8.90;99.90;;;;;;5046640;28;20240;-80
2023/12/28 10:03:33;;;;;;;2.50;1.50;;;8.90;99.90;;;;;;5046692;28;20218;-80
2023/12/28 10:06:02;;;;;;;1.53;1.43;;;9.00;99.90;;;;;;5046051;28;20231;-79
2023/12/28 10:08:29;;;;;;;1.53;1.40;;;9.00;99.90;;;;;;5045882;28;20668;-79
2023/12/28 10:10:58;;;;;;;1.97;1.57;;;9.10;99.90;;;;;;5046413;28;20197;-80
2023/12/28 10:13:26;;;;;;;1.97;1.80;;;9.10;99.90;;;;;;5046107;28;20216;-79
2023/12/28 10:15:53;;;;;;;1.67;1.57;;;9.20;99.90;;;;;;5046233;28;20290;-80
2023/12/28 10:18:20;;;;;;;3.10;1.80;;;9.30;99.90;;;;;;5045918;28;20299;-79
2023/12/28 10:20:51;;;;;;;1.67;1.57;;;9.50;99.90;;;;;;5045720;28;20224;-79
2023/12/28 10:23:22;;;;;;;2.30;2.10;;;9.50;99.90;;;;;;5045948;28;20295;-79
2023/12/28 10:25:53;;;;;;;3.07;1.60;;;9.50;99.90;;;;;;5045469;28;20192;-79
2023/12/28 10:28:20;;;;;;;1.90;1.80;;;9.60;99.90;;;;;;5045192;28;20691;-79
2023/12/28 10:30:48;;;;;;;3.37;2.00;;;9.70;99.90;;;;;;5034052;28;20228;-79
2023/12/28 10:33:15;;;;;;;1.60;1.50;;;9.90;99.90;;;;;;5035862;28;20259;-79
2023/12/28 10:35:43;;;;;;;1.47;1.37;;;9.90;99.90;;;;;;5034943;28;20204;-79
2023/12/28 10:38:14;;;;;;;2.73;1.73;;;10.00;99.90;;;;;;5034371;28;20595;-79
2023/12/28 10:40:43;;;;;;;1.63;1.53;;;10.00;99.90;;;;;;5034469;28;20274;-80
2023/12/28 10:43:15;;;;;;;1.77;1.67;;;10.00;99.90;;;;;;5036410;28;20204;-79
2023/12/28 10:45:43;;;;;;;1.80;1.70;;;10.10;99.90;;;;;;5034428;28;20280;-79
2023/12/28 10:48:12;;;;;;;1.93;1.60;;;10.20;99.90;;;;;;5037698;28;20293;-80
2023/12/28 10:50:41;;;;;;;1.50;1.40;;;10.20;99.90;;;;;;5045138;28;20689;-79
2023/12/28 10:53:23;;;;;;;1.40;1.30;;;10.30;99.90;;;;;;5044937;28;20321;-80
2023/12/28 10:56:09;;;;;;;1.70;1.60;;;10.30;99.90;;;;;;5044761;28;20719;-80
2023/12/28 10:58:45;;;;;;;1.40;1.30;;;10.40;99.90;;;;;;5044995;28;20482;-79
2023/12/28 11:01:14;;;;;;;1.63;1.53;;;10.40;99.90;;;;;;5044613;28;20682;-79
2023/12/28 11:03:44;;;;;;;2.07;1.43;;;10.50;99.90;;;;;;5045435;28;20784;-79
2023/12/28 11:06:13;;;;;;;2.73;1.43;;;10.60;99.90;;;;;;5044777;28;20745;-80
2023/12/28 11:08:42;;;;;;;1.80;1.70;;;10.70;99.90;;;;;;5044219;28;20309;-80
2023/12/28 11:11:12;;;;;;;1.53;1.43;;;10.70;99.90;;;;;;5045257;28;20261;-80
2023/12/28 11:13:41;;;;;;;3.07;1.47;;;10.70;99.90;;;;;;5044828;28;20290;-79
2023/12/28 11:16:08;;;;;;;1.90;1.80;;;10.70;99.90;;;;;;5044484;28;20208;-80
2023/12/28 11:18:35;;;;;;;1.63;1.53;;;10.60;99.90;;;;;;5045088;28;20208;-80
2023/12/28 11:21:02;;;;;;;1.57;1.47;;;10.60;99.90;;;;;;5045310;28;20361;-79
2023/12/28 11:23:30;;;;;;;2.60;1.70;;;10.60;99.90;;;;;;5043148;28;20298;-79
2023/12/28 11:25:57;;;;;;;1.40;1.30;;;10.70;99.90;;;;;;5045135;28;20208;-79
2023/12/28 11:28:26;;;;;;;1.37;1.27;;;10.80;99.90;;;;;;5045161;28;20246;-79
2023/12/28 11:30:53;;;;;;;1.27;1.27;;;10.90;99.90;;;;;;5024297;28;20211;-82
2023/12/28 11:33:20;;;;;;;1.60;1.50;;;10.90;99.90;;;;;;5024491;28;20233;-79
2023/12/28 11:35:48;;;;;;;2.17;1.60;;;11.00;99.90;;;;;;5025411;28;20300;-79
2023/12/28 11:38:18;;;;;;;1.70;1.60;;;11.10;99.90;;;;;;5024831;28;20227;-79
2023/12/28 11:40:47;;;;;;;1.27;1.23;;;11.10;99.90;;;;;;5024698;28;20254;-79
2023/12/28 11:43:20;;;;;;;1.30;1.30;;;11.20;99.90;;;;;;5024001;28;20213;-80
2023/12/28 11:45:52;;;;;;;1.47;1.30;;;11.20;99.90;;;;;;5024260;28;20324;-80
2023/12/28 11:48:27;;;;;;;2.70;1.73;;;11.30;99.90;;;;;;5024201;28;20649;-79
2023/12/28 11:50:58;;;;;;;2.13;1.53;;;11.30;99.90;;;;;;5027951;28;20204;-79
2023/12/28 11:53:25;;;;;;;1.70;1.60;;;11.30;99.90;;;;;;5036361;28;20311;-80
2023/12/28 11:55:53;;;;;;;2.20;2.10;;;11.30;99.90;;;;;;5047569;28;20209;-79
2023/12/28 11:58:20;;;;;;;3.07;2.63;;;11.30;99.90;;;;;;5047208;28;20240;-80
2023/12/28 12:00:48;;;;;;;2.67;1.70;;;11.30;99.90;;;;;;5048031;28;20299;-78
2023/12/28 12:03:16;;;;;;;1.57;1.30;;;11.30;99.90;;;;;;5047536;28;20720;-80
2023/12/28 12:05:43;;;;;;;2.33;1.50;;;11.40;99.90;;;;;;5047754;28;20295;-79
2023/12/28 12:08:14;;;;;;;2.17;1.20;;;11.40;99.90;;;;;;5047079;28;20319;-79
2023/12/28 12:10:41;;;;;;;1.50;1.40;;;11.30;99.90;;;;;;5047748;28;20197;-80
2023/12/28 12:13:08;;;;;;;1.70;1.60;;;11.30;99.90;;;;;;5047481;28;20737;-79
2023/12/28 12:15:35;;;;;;;1.70;1.33;;;11.30;99.90;;;;;;5030516;28;20782;-79
2023/12/28 12:18:03;;;;;;;2.40;1.60;;;11.30;99.90;;;;;;5023529;28;20232;-79
2023/12/28 12:20:31;;;;;;;1.90;1.60;;;11.40;99.90;;;;;;5042493;28;20714;-80
2023/12/28 12:23:02;;;;;;;1.73;1.60;;;11.40;99.90;;;;;;5042585;28;20208;-80
2023/12/28 12:25:30;;;;;;;1.53;1.43;;;11.40;99.90;;;;;;5043114;28;20200;-79
2023/12/28 12:27:57;;;;;;;1.57;1.47;;;11.40;99.90;;;;;;5042913;28;20693;-79
2023/12/28 12:30:24;;;;;;;2.47;1.43;;;11.40;99.90;;;;;;5035852;28;20296;-80
2023/12/28 12:32:51;;;;;;;1.87;1.23;;;11.50;99.90;;;;;;5043410;28;20382;-81
2023/12/28 12:35:21;;;;;;;1.20;1.10;;;11.50;99.90;;;;;;5043215;28;20214;-80
2023/12/28 12:37:50;;;;;;;2.00;1.30;;;11.60;99.90;;;;;;5043628;28;20247;-79
2023/12/28 12:40:19;;;;;;;1.63;1.47;;;11.60;99.90;;;;;;5043197;28;20608;-80
2023/12/28 12:42:54;;;;;;;3.03;1.47;;;11.70;99.90;;;;;;5042894;28;20207;-79
2023/12/28 12:45:21;;;;;;;1.63;1.53;;;11.70;99.90;;;;;;5042639;28;20199;-80
2023/12/28 12:47:49;;;;;;;1.40;1.30;;;11.70;99.90;;;;;;5042425;28;20204;-80
2023/12/28 12:50:17;;;;;;;2.07;1.33;;;11.80;99.90;;;;;;5042412;28;20667;-80
2023/12/28 12:52:45;;;;;;;1.80;1.70;;;11.80;99.90;;;;;;5042286;28;20231;-80
2023/12/28 12:55:13;;;;;;;1.53;1.37;;;11.80;99.90;;;;;;5040942;28;20708;-79
2023/12/28 12:57:41;;;;;;;1.93;1.83;;;11.80;99.90;;;;;;5046644;28;20301;-80